sensor_id;sensor_type;location;lat;lon;timestamp;P1;durP1;ratioP1;P2;durP2;ratioP2
14080;SDS011;7116;52.152;5.392;2022-08-03T00:01:15;5.40;;;2.23;;
14080;SDS011;7116;52.152;5.392;2022-08-03T00:03:40;6.40;;;2.20;;
14080;SDS011;7116;52.152;5.392;2022-08-03T00:06:05;5.27;;;1.73;;
14080;SDS011;7116;52.152;5.392;2022-08-03T00:08:31;4.53;;;2.17;;
14080;SDS011;7116;52.152;5.392;2022-08-03T00:10:56;3.97;;;2.27;;
14080;SDS011;7116;52.152;5.392;2022-08-03T00:13:21;6.27;;;1.93;;
14080;SDS011;7116;52.152;5.392;2022-08-03T00:15:46;6.10;;;2.00;;
14080;SDS011;7116;52.152;5.392;2022-08-03T00:18:12;5.63;;;2.00;;
14080;SDS011;7116;52.152;5.392;2022-08-03T00:20:37;4.80;;;1.73;;
14080;SDS011;7116;52.152;5.392;2022-08-03T00:23:03;4.90;;;1.40;;
14080;SDS011;7116;52.152;5.392;2022-08-03T00:25:28;5.13;;;2.22;;
14080;SDS011;7116;52.152;5.392;2022-08-03T00:27:53;6.60;;;1.60;;
14080;SDS011;7116;52.152;5.392;2022-08-03T00:30:18;2.87;;;2.10;;
14080;SDS011;7116;52.152;5.392;2022-08-03T00:32:43;5.33;;;1.97;;
14080;SDS011;7116;52.152;5.392;2022-08-03T00:35:09;5.33;;;1.63;;
14080;SDS011;7116;52.152;5.392;2022-08-03T00:37:34;3.03;;;1.67;;
14080;SDS011;7116;52.152;5.392;2022-08-03T00:39:59;4.93;;;2.43;;
14080;SDS011;7116;52.152;5.392;2022-08-03T00:42:24;6.63;;;1.97;;
14080;SDS011;7116;52.152;5.392;2022-08-03T00:44:49;3.53;;;1.50;;
14080;SDS011;7116;52.152;5.392;2022-08-03T00:47:15;5.73;;;2.13;;
14080;SDS011;7116;52.152;5.392;2022-08-03T00:49:40;5.10;;;1.98;;
14080;SDS011;7116;52.152;5.392;2022-08-03T00:52:07;5.45;;;2.13;;
14080;SDS011;7116;52.152;5.392;2022-08-03T00:54:33;4.13;;;1.50;;
14080;SDS011;7116;52.152;5.392;2022-08-03T00:56:58;9.85;;;2.15;;
14080;SDS011;7116;52.152;5.392;2022-08-03T00:59:23;4.67;;;1.97;;
14080;SDS011;7116;52.152;5.392;2022-08-03T01:01:48;7.75;;;1.95;;
14080;SDS011;7116;52.152;5.392;2022-08-03T01:04:14;5.47;;;1.90;;
14080;SDS011;7116;52.152;5.392;2022-08-03T01:06:43;7.93;;;2.30;;
14080;SDS011;7116;52.152;5.392;2022-08-03T01:09:31;4.88;;;2.15;;
14080;SDS011;7116;52.152;5.392;2022-08-03T01:12:02;6.10;;;1.90;;
14080;SDS011;7116;52.152;5.392;2022-08-03T01:14:37;5.67;;;1.90;;
14080;SDS011;7116;52.152;5.392;2022-08-03T01:17:09;8.10;;;1.90;;
14080;SDS011;7116;52.152;5.392;2022-08-03T01:19:49;7.95;;;1.80;;
14080;SDS011;7116;52.152;5.392;2022-08-03T01:22:24;5.68;;;2.03;;
14080;SDS011;7116;52.152;5.392;2022-08-03T01:30:03;5.97;;;1.88;;
14080;SDS011;7116;52.152;5.392;2022-08-03T01:34:57;5.70;;;2.23;;
14080;SDS011;7116;52.152;5.392;2022-08-03T01:37:25;11.65;;;2.40;;
14080;SDS011;7116;52.152;5.392;2022-08-03T01:39:52;5.00;;;2.08;;
14080;SDS011;7116;52.152;5.392;2022-08-03T01:42:18;9.27;;;2.20;;
14080;SDS011;7116;52.152;5.392;2022-08-03T01:44:44;8.32;;;2.50;;
14080;SDS011;7116;52.152;5.392;2022-08-03T01:47:12;6.65;;;1.92;;
14080;SDS011;7116;52.152;5.392;2022-08-03T01:49:39;10.98;;;2.42;;
14080;SDS011;7116;52.152;5.392;2022-08-03T01:52:07;9.43;;;1.90;;
14080;SDS011;7116;52.152;5.392;2022-08-03T01:54:33;4.07;;;1.80;;
14080;SDS011;7116;52.152;5.392;2022-08-03T01:56:59;6.80;;;2.05;;
14080;SDS011;7116;52.152;5.392;2022-08-03T01:59:26;6.05;;;1.90;;
14080;SDS011;7116;52.152;5.392;2022-08-03T02:01:52;7.27;;;2.27;;
14080;SDS011;7116;52.152;5.392;2022-08-03T02:04:17;5.28;;;2.25;;
14080;SDS011;7116;52.152;5.392;2022-08-03T02:06:44;6.73;;;1.90;;
14080;SDS011;7116;52.152;5.392;2022-08-03T02:09:09;6.07;;;2.28;;
14080;SDS011;7116;52.152;5.392;2022-08-03T02:11:35;8.38;;;2.78;;
14080;SDS011;7116;52.152;5.392;2022-08-03T02:14:02;8.38;;;2.25;;
14080;SDS011;7116;52.152;5.392;2022-08-03T02:16:29;4.63;;;2.30;;
14080;SDS011;7116;52.152;5.392;2022-08-03T02:18:55;8.30;;;2.58;;
14080;SDS011;7116;52.152;5.392;2022-08-03T02:21:21;6.57;;;1.95;;
14080;SDS011;7116;52.152;5.392;2022-08-03T02:23:47;9.77;;;2.10;;
14080;SDS011;7116;52.152;5.392;2022-08-03T02:26:13;6.83;;;2.20;;
14080;SDS011;7116;52.152;5.392;2022-08-03T02:28:40;6.95;;;2.83;;
14080;SDS011;7116;52.152;5.392;2022-08-03T02:31:12;8.63;;;2.47;;
14080;SDS011;7116;52.152;5.392;2022-08-03T02:33:42;5.93;;;2.10;;
14080;SDS011;7116;52.152;5.392;2022-08-03T02:36:10;5.67;;;1.90;;
14080;SDS011;7116;52.152;5.392;2022-08-03T02:38:38;8.13;;;2.30;;
14080;SDS011;7116;52.152;5.392;2022-08-03T02:41:06;11.35;;;2.20;;
14080;SDS011;7116;52.152;5.392;2022-08-03T02:43:33;6.68;;;2.58;;
14080;SDS011;7116;52.152;5.392;2022-08-03T02:45:58;6.65;;;2.58;;
14080;SDS011;7116;52.152;5.392;2022-08-03T02:48:25;9.70;;;2.60;;
14080;SDS011;7116;52.152;5.392;2022-08-03T02:50:51;6.23;;;2.70;;
14080;SDS011;7116;52.152;5.392;2022-08-03T02:53:17;9.20;;;2.83;;
14080;SDS011;7116;52.152;5.392;2022-08-03T02:55:43;9.17;;;2.80;;
14080;SDS011;7116;52.152;5.392;2022-08-03T02:58:10;6.07;;;2.67;;
14080;SDS011;7116;52.152;5.392;2022-08-03T03:00:36;8.60;;;2.83;;
14080;SDS011;7116;52.152;5.392;2022-08-03T03:03:02;7.97;;;2.57;;
14080;SDS011;7116;52.152;5.392;2022-08-03T03:05:28;8.00;;;2.33;;
14080;SDS011;7116;52.152;5.392;2022-08-03T03:07:54;5.15;;;2.70;;
14080;SDS011;7116;52.152;5.392;2022-08-03T03:10:20;10.67;;;2.30;;
14080;SDS011;7116;52.152;5.392;2022-08-03T03:12:45;10.95;;;3.15;;
14080;SDS011;7116;52.152;5.392;2022-08-03T03:15:12;7.47;;;2.40;;
14080;SDS011;7116;52.152;5.392;2022-08-03T03:17:37;15.60;;;2.90;;
14080;SDS011;7116;52.152;5.392;2022-08-03T03:20:03;11.13;;;2.83;;
14080;SDS011;7116;52.152;5.392;2022-08-03T03:22:28;6.32;;;2.53;;
14080;SDS011;7116;52.152;5.392;2022-08-03T03:24:54;5.87;;;2.27;;
14080;SDS011;7116;52.152;5.392;2022-08-03T03:27:20;8.93;;;2.83;;
14080;SDS011;7116;52.152;5.392;2022-08-03T03:29:45;9.13;;;2.70;;
14080;SDS011;7116;52.152;5.392;2022-08-03T03:32:11;8.73;;;3.13;;
14080;SDS011;7116;52.152;5.392;2022-08-03T03:34:36;6.77;;;2.50;;
14080;SDS011;7116;52.152;5.392;2022-08-03T03:37:01;12.03;;;2.93;;
14080;SDS011;7116;52.152;5.392;2022-08-03T03:39:27;9.55;;;2.28;;
14080;SDS011;7116;52.152;5.392;2022-08-03T03:41:52;7.37;;;2.80;;
14080;SDS011;7116;52.152;5.392;2022-08-03T03:44:18;9.77;;;3.17;;
14080;SDS011;7116;52.152;5.392;2022-08-03T03:46:43;12.90;;;2.70;;
14080;SDS011;7116;52.152;5.392;2022-08-03T03:49:08;8.57;;;2.60;;
14080;SDS011;7116;52.152;5.392;2022-08-03T03:51:34;11.43;;;2.70;;
14080;SDS011;7116;52.152;5.392;2022-08-03T03:54:01;10.47;;;2.80;;
14080;SDS011;7116;52.152;5.392;2022-08-03T03:56:27;7.50;;;2.37;;
14080;SDS011;7116;52.152;5.392;2022-08-03T03:58:53;9.82;;;2.20;;
14080;SDS011;7116;52.152;5.392;2022-08-03T04:01:18;6.83;;;2.37;;
14080;SDS011;7116;52.152;5.392;2022-08-03T04:03:43;7.67;;;2.90;;
14080;SDS011;7116;52.152;5.392;2022-08-03T04:06:09;8.30;;;2.92;;
14080;SDS011;7116;52.152;5.392;2022-08-03T04:08:53;12.40;;;2.73;;
14080;SDS011;7116;52.152;5.392;2022-08-03T04:11:37;11.80;;;2.78;;
14080;SDS011;7116;52.152;5.392;2022-08-03T04:14:23;10.43;;;2.67;;
14080;SDS011;7116;52.152;5.392;2022-08-03T04:16:51;8.88;;;2.50;;
14080;SDS011;7116;52.152;5.392;2022-08-03T04:19:18;7.40;;;2.65;;
14080;SDS011;7116;52.152;5.392;2022-08-03T04:21:47;8.40;;;3.07;;
14080;SDS011;7116;52.152;5.392;2022-08-03T04:24:14;9.57;;;2.33;;
14080;SDS011;7116;52.152;5.392;2022-08-03T04:26:40;7.00;;;2.37;;
14080;SDS011;7116;52.152;5.392;2022-08-03T04:29:06;8.55;;;2.53;;
14080;SDS011;7116;52.152;5.392;2022-08-03T04:31:31;8.70;;;2.80;;
14080;SDS011;7116;52.152;5.392;2022-08-03T04:33:57;9.13;;;3.25;;
14080;SDS011;7116;52.152;5.392;2022-08-03T04:36:26;11.60;;;3.30;;
14080;SDS011;7116;52.152;5.392;2022-08-03T04:38:58;9.88;;;2.97;;
14080;SDS011;7116;52.152;5.392;2022-08-03T04:41:25;7.40;;;3.00;;
14080;SDS011;7116;52.152;5.392;2022-08-03T04:43:51;10.67;;;2.93;;
14080;SDS011;7116;52.152;5.392;2022-08-03T04:46:17;14.23;;;2.97;;
14080;SDS011;7116;52.152;5.392;2022-08-03T04:48:43;17.67;;;3.10;;
14080;SDS011;7116;52.152;5.392;2022-08-03T04:51:10;12.40;;;2.83;;
14080;SDS011;7116;52.152;5.392;2022-08-03T04:53:36;10.88;;;3.25;;
14080;SDS011;7116;52.152;5.392;2022-08-03T04:56:05;12.37;;;3.67;;
14080;SDS011;7116;52.152;5.392;2022-08-03T04:58:31;13.00;;;3.05;;
14080;SDS011;7116;52.152;5.392;2022-08-03T05:00:56;9.70;;;3.07;;
14080;SDS011;7116;52.152;5.392;2022-08-03T05:03:21;11.47;;;3.50;;
14080;SDS011;7116;52.152;5.392;2022-08-03T05:05:46;9.23;;;3.07;;
14080;SDS011;7116;52.152;5.392;2022-08-03T05:08:11;10.10;;;3.27;;
14080;SDS011;7116;52.152;5.392;2022-08-03T05:10:37;12.33;;;3.40;;
14080;SDS011;7116;52.152;5.392;2022-08-03T05:13:02;11.20;;;3.00;;
14080;SDS011;7116;52.152;5.392;2022-08-03T05:15:28;11.18;;;2.63;;
14080;SDS011;7116;52.152;5.392;2022-08-03T05:17:53;11.23;;;2.90;;
14080;SDS011;7116;52.152;5.392;2022-08-03T05:20:18;8.83;;;2.87;;
14080;SDS011;7116;52.152;5.392;2022-08-03T05:22:44;10.37;;;3.40;;
14080;SDS011;7116;52.152;5.392;2022-08-03T05:25:09;11.47;;;3.50;;
14080;SDS011;7116;52.152;5.392;2022-08-03T05:27:35;16.43;;;3.23;;
14080;SDS011;7116;52.152;5.392;2022-08-03T05:30:03;15.93;;;3.35;;
14080;SDS011;7116;52.152;5.392;2022-08-03T05:32:28;10.88;;;3.60;;
14080;SDS011;7116;52.152;5.392;2022-08-03T05:34:53;18.97;;;3.03;;
14080;SDS011;7116;52.152;5.392;2022-08-03T05:37:19;7.47;;;3.37;;
14080;SDS011;7116;52.152;5.392;2022-08-03T05:39:44;14.70;;;3.10;;
14080;SDS011;7116;52.152;5.392;2022-08-03T05:42:09;15.50;;;3.47;;
14080;SDS011;7116;52.152;5.392;2022-08-03T05:44:35;13.70;;;3.80;;
14080;SDS011;7116;52.152;5.392;2022-08-03T05:47:02;9.23;;;3.80;;
14080;SDS011;7116;52.152;5.392;2022-08-03T05:49:28;11.57;;;3.13;;
14080;SDS011;7116;52.152;5.392;2022-08-03T05:51:53;8.63;;;3.30;;
14080;SDS011;7116;52.152;5.392;2022-08-03T05:54:18;10.73;;;3.00;;
14080;SDS011;7116;52.152;5.392;2022-08-03T05:56:43;9.30;;;2.80;;
14080;SDS011;7116;52.152;5.392;2022-08-03T05:59:09;14.70;;;2.87;;
14080;SDS011;7116;52.152;5.392;2022-08-03T06:01:34;10.97;;;2.90;;
14080;SDS011;7116;52.152;5.392;2022-08-03T06:03:59;10.40;;;3.00;;
14080;SDS011;7116;52.152;5.392;2022-08-03T06:06:25;14.27;;;3.57;;
14080;SDS011;7116;52.152;5.392;2022-08-03T06:08:50;13.20;;;2.83;;
14080;SDS011;7116;52.152;5.392;2022-08-03T06:11:16;12.70;;;3.20;;
14080;SDS011;7116;52.152;5.392;2022-08-03T06:13:42;10.80;;;3.42;;
14080;SDS011;7116;52.152;5.392;2022-08-03T06:16:07;7.80;;;2.57;;
14080;SDS011;7116;52.152;5.392;2022-08-03T06:18:32;11.20;;;3.70;;
14080;SDS011;7116;52.152;5.392;2022-08-03T06:20:58;7.70;;;3.03;;
14080;SDS011;7116;52.152;5.392;2022-08-03T06:23:23;9.43;;;2.53;;
14080;SDS011;7116;52.152;5.392;2022-08-03T06:25:49;10.63;;;3.07;;
14080;SDS011;7116;52.152;5.392;2022-08-03T06:28:14;14.67;;;2.87;;
14080;SDS011;7116;52.152;5.392;2022-08-03T06:30:39;11.73;;;3.00;;
14080;SDS011;7116;52.152;5.392;2022-08-03T06:33:05;14.25;;;3.33;;
14080;SDS011;7116;52.152;5.392;2022-08-03T06:35:30;13.47;;;3.87;;
14080;SDS011;7116;52.152;5.392;2022-08-03T06:37:55;11.40;;;3.37;;
14080;SDS011;7116;52.152;5.392;2022-08-03T06:40:21;19.70;;;3.27;;
14080;SDS011;7116;52.152;5.392;2022-08-03T06:42:59;12.07;;;3.10;;
14080;SDS011;7116;52.152;5.392;2022-08-03T06:45:25;10.45;;;3.28;;
14080;SDS011;7116;52.152;5.392;2022-08-03T06:48:00;13.60;;;3.20;;
14080;SDS011;7116;52.152;5.392;2022-08-03T06:50:25;8.45;;;3.30;;
14080;SDS011;7116;52.152;5.392;2022-08-03T06:52:51;11.30;;;3.40;;
14080;SDS011;7116;52.152;5.392;2022-08-03T06:55:16;12.93;;;3.07;;
14080;SDS011;7116;52.152;5.392;2022-08-03T06:57:41;16.23;;;3.27;;
14080;SDS011;7116;52.152;5.392;2022-08-03T07:00:07;15.00;;;3.37;;
14080;SDS011;7116;52.152;5.392;2022-08-03T07:02:33;10.02;;;3.03;;
14080;SDS011;7116;52.152;5.392;2022-08-03T07:04:58;12.40;;;3.00;;
14080;SDS011;7116;52.152;5.392;2022-08-03T07:07:24;15.70;;;3.57;;
14080;SDS011;7116;52.152;5.392;2022-08-03T07:09:49;12.23;;;2.90;;
14080;SDS011;7116;52.152;5.392;2022-08-03T07:12:14;15.70;;;3.00;;
14080;SDS011;7116;52.152;5.392;2022-08-03T07:14:39;9.80;;;2.80;;
14080;SDS011;7116;52.152;5.392;2022-08-03T07:17:04;10.20;;;3.20;;
14080;SDS011;7116;52.152;5.392;2022-08-03T07:19:30;11.67;;;3.17;;
14080;SDS011;7116;52.152;5.392;2022-08-03T07:21:55;16.17;;;3.20;;
14080;SDS011;7116;52.152;5.392;2022-08-03T07:24:20;13.23;;;3.23;;
14080;SDS011;7116;52.152;5.392;2022-08-03T07:26:45;15.40;;;3.27;;
14080;SDS011;7116;52.152;5.392;2022-08-03T07:29:11;11.33;;;2.70;;
14080;SDS011;7116;52.152;5.392;2022-08-03T07:31:36;14.10;;;3.17;;
14080;SDS011;7116;52.152;5.392;2022-08-03T07:34:02;9.17;;;2.90;;
14080;SDS011;7116;52.152;5.392;2022-08-03T07:36:27;9.93;;;2.63;;
14080;SDS011;7116;52.152;5.392;2022-08-03T07:38:52;15.90;;;2.73;;
14080;SDS011;7116;52.152;5.392;2022-08-03T07:41:18;13.77;;;2.83;;
14080;SDS011;7116;52.152;5.392;2022-08-03T07:43:43;17.80;;;3.63;;
14080;SDS011;7116;52.152;5.392;2022-08-03T07:46:11;14.13;;;3.17;;
14080;SDS011;7116;52.152;5.392;2022-08-03T07:48:36;12.73;;;3.07;;
14080;SDS011;7116;52.152;5.392;2022-08-03T07:51:01;14.27;;;3.07;;
14080;SDS011;7116;52.152;5.392;2022-08-03T07:53:27;12.77;;;2.80;;
14080;SDS011;7116;52.152;5.392;2022-08-03T07:55:53;15.10;;;2.70;;
14080;SDS011;7116;52.152;5.392;2022-08-03T07:58:18;9.50;;;3.13;;
14080;SDS011;7116;52.152;5.392;2022-08-03T08:00:43;13.50;;;3.10;;
14080;SDS011;7116;52.152;5.392;2022-08-03T08:03:08;13.80;;;3.17;;
14080;SDS011;7116;52.152;5.392;2022-08-03T08:05:34;11.25;;;3.05;;
14080;SDS011;7116;52.152;5.392;2022-08-03T08:07:59;10.77;;;3.00;;
14080;SDS011;7116;52.152;5.392;2022-08-03T08:10:25;9.70;;;2.60;;
14080;SDS011;7116;52.152;5.392;2022-08-03T08:12:50;9.88;;;3.15;;
14080;SDS011;7116;52.152;5.392;2022-08-03T08:15:15;15.47;;;3.30;;
14080;SDS011;7116;52.152;5.392;2022-08-03T08:17:45;12.97;;;3.10;;
14080;SDS011;7116;52.152;5.392;2022-08-03T08:20:11;13.60;;;2.83;;
14080;SDS011;7116;52.152;5.392;2022-08-03T08:22:39;13.15;;;3.22;;
14080;SDS011;7116;52.152;5.392;2022-08-03T08:25:04;9.90;;;3.25;;
14080;SDS011;7116;52.152;5.392;2022-08-03T08:27:30;7.97;;;2.50;;
14080;SDS011;7116;52.152;5.392;2022-08-03T08:29:55;10.90;;;2.87;;
14080;SDS011;7116;52.152;5.392;2022-08-03T08:32:20;13.53;;;2.93;;
14080;SDS011;7116;52.152;5.392;2022-08-03T08:34:45;16.23;;;3.60;;
14080;SDS011;7116;52.152;5.392;2022-08-03T08:37:10;13.38;;;3.38;;
14080;SDS011;7116;52.152;5.392;2022-08-03T08:39:35;11.67;;;3.10;;
14080;SDS011;7116;52.152;5.392;2022-08-03T08:42:01;20.47;;;3.40;;
14080;SDS011;7116;52.152;5.392;2022-08-03T08:44:26;16.90;;;3.30;;
14080;SDS011;7116;52.152;5.392;2022-08-03T08:46:52;24.10;;;2.92;;
14080;SDS011;7116;52.152;5.392;2022-08-03T08:49:19;10.57;;;3.25;;
14080;SDS011;7116;52.152;5.392;2022-08-03T08:51:46;17.17;;;3.47;;
14080;SDS011;7116;52.152;5.392;2022-08-03T08:54:13;11.85;;;2.83;;
14080;SDS011;7116;52.152;5.392;2022-08-03T08:56:39;12.73;;;3.22;;
14080;SDS011;7116;52.152;5.392;2022-08-03T08:59:04;16.00;;;3.40;;
14080;SDS011;7116;52.152;5.392;2022-08-03T09:01:30;11.77;;;2.97;;
14080;SDS011;7116;52.152;5.392;2022-08-03T09:03:55;10.27;;;3.00;;
14080;SDS011;7116;52.152;5.392;2022-08-03T09:06:21;14.23;;;3.40;;
14080;SDS011;7116;52.152;5.392;2022-08-03T09:08:46;13.02;;;4.03;;
14080;SDS011;7116;52.152;5.392;2022-08-03T09:11:12;13.13;;;3.27;;
14080;SDS011;7116;52.152;5.392;2022-08-03T09:13:37;17.80;;;3.53;;
14080;SDS011;7116;52.152;5.392;2022-08-03T09:18:34;16.40;;;3.33;;
14080;SDS011;7116;52.152;5.392;2022-08-03T09:23:48;11.57;;;3.03;;
14080;SDS011;7116;52.152;5.392;2022-08-03T09:26:20;14.98;;;3.30;;
14080;SDS011;7116;52.152;5.392;2022-08-03T09:28:46;12.77;;;2.83;;
14080;SDS011;7116;52.152;5.392;2022-08-03T09:31:11;11.97;;;2.83;;
14080;SDS011;7116;52.152;5.392;2022-08-03T09:33:46;12.67;;;3.07;;
14080;SDS011;7116;52.152;5.392;2022-08-03T09:36:32;14.63;;;2.95;;
14080;SDS011;7116;52.152;5.392;2022-08-03T09:39:01;15.60;;;3.60;;
14080;SDS011;7116;52.152;5.392;2022-08-03T09:41:37;12.30;;;3.00;;
14080;SDS011;7116;52.152;5.392;2022-08-03T09:44:05;13.18;;;2.90;;
14080;SDS011;7116;52.152;5.392;2022-08-03T09:46:48;9.57;;;3.00;;
14080;SDS011;7116;52.152;5.392;2022-08-03T09:49:14;13.57;;;3.28;;
14080;SDS011;7116;52.152;5.392;2022-08-03T09:51:39;14.70;;;3.13;;
14080;SDS011;7116;52.152;5.392;2022-08-03T09:54:05;15.25;;;3.75;;
14080;SDS011;7116;52.152;5.392;2022-08-03T09:59:05;9.40;;;2.60;;
14080;SDS011;7116;52.152;5.392;2022-08-03T10:01:33;11.57;;;2.60;;
14080;SDS011;7116;52.152;5.392;2022-08-03T10:03:59;10.50;;;2.97;;
14080;SDS011;7116;52.152;5.392;2022-08-03T10:06:24;12.00;;;2.77;;
14080;SDS011;7116;52.152;5.392;2022-08-03T10:09:04;12.60;;;2.50;;
14080;SDS011;7116;52.152;5.392;2022-08-03T10:11:29;14.05;;;2.65;;
14080;SDS011;7116;52.152;5.392;2022-08-03T10:13:55;10.37;;;2.60;;
14080;SDS011;7116;52.152;5.392;2022-08-03T10:16:20;9.83;;;2.50;;
14080;SDS011;7116;52.152;5.392;2022-08-03T10:18:45;13.57;;;3.00;;
14080;SDS011;7116;52.152;5.392;2022-08-03T10:21:10;12.17;;;3.43;;
14080;SDS011;7116;52.152;5.392;2022-08-03T10:23:37;13.27;;;2.78;;
14080;SDS011;7116;52.152;5.392;2022-08-03T10:26:06;12.55;;;3.13;;
14080;SDS011;7116;52.152;5.392;2022-08-03T10:28:33;10.57;;;2.88;;
14080;SDS011;7116;52.152;5.392;2022-08-03T10:30:59;10.43;;;3.00;;
14080;SDS011;7116;52.152;5.392;2022-08-03T10:33:26;13.93;;;2.80;;
14080;SDS011;7116;52.152;5.392;2022-08-03T10:35:56;14.13;;;2.67;;
14080;SDS011;7116;52.152;5.392;2022-08-03T10:38:39;16.02;;;2.70;;
14080;SDS011;7116;52.152;5.392;2022-08-03T10:41:05;11.15;;;2.42;;
14080;SDS011;7116;52.152;5.392;2022-08-03T10:43:32;8.70;;;2.40;;
14080;SDS011;7116;52.152;5.392;2022-08-03T10:45:59;12.70;;;2.93;;
14080;SDS011;7116;52.152;5.392;2022-08-03T10:48:25;15.32;;;3.45;;
14080;SDS011;7116;52.152;5.392;2022-08-03T10:50:50;14.50;;;2.80;;
14080;SDS011;7116;52.152;5.392;2022-08-03T10:53:16;9.25;;;2.50;;
14080;SDS011;7116;52.152;5.392;2022-08-03T10:55:57;8.50;;;2.40;;
14080;SDS011;7116;52.152;5.392;2022-08-03T10:58:45;12.88;;;3.00;;
14080;SDS011;7116;52.152;5.392;2022-08-03T11:01:10;13.75;;;2.30;;
14080;SDS011;7116;52.152;5.392;2022-08-03T11:06:17;12.15;;;2.47;;
14080;SDS011;7116;52.152;5.392;2022-08-03T11:08:43;9.32;;;2.55;;
14080;SDS011;7116;52.152;5.392;2022-08-03T11:13:59;8.38;;;2.63;;
14080;SDS011;7116;52.152;5.392;2022-08-03T11:16:26;15.32;;;3.05;;
14080;SDS011;7116;52.152;5.392;2022-08-03T11:18:55;10.70;;;2.40;;
14080;SDS011;7116;52.152;5.392;2022-08-03T11:24:08;13.88;;;2.10;;
14080;SDS011;7116;52.152;5.392;2022-08-03T11:26:33;13.83;;;2.57;;
14080;SDS011;7116;52.152;5.392;2022-08-03T11:31:43;13.38;;;2.78;;
14080;SDS011;7116;52.152;5.392;2022-08-03T11:34:10;18.70;;;2.80;;
14080;SDS011;7116;52.152;5.392;2022-08-03T11:39:19;10.43;;;2.50;;
14080;SDS011;7116;52.152;5.392;2022-08-03T11:41:44;10.43;;;3.07;;
14080;SDS011;7116;52.152;5.392;2022-08-03T11:44:10;11.87;;;2.40;;
14080;SDS011;7116;52.152;5.392;2022-08-03T11:46:54;11.70;;;2.67;;
14080;SDS011;7116;52.152;5.392;2022-08-03T11:49:20;11.77;;;2.60;;
14080;SDS011;7116;52.152;5.392;2022-08-03T11:51:47;8.30;;;2.53;;
14080;SDS011;7116;52.152;5.392;2022-08-03T11:54:17;12.82;;;2.92;;
14080;SDS011;7116;52.152;5.392;2022-08-03T11:56:47;8.85;;;2.78;;
14080;SDS011;7116;52.152;5.392;2022-08-03T11:59:12;13.73;;;2.53;;
14080;SDS011;7116;52.152;5.392;2022-08-03T12:01:37;10.27;;;2.47;;
14080;SDS011;7116;52.152;5.392;2022-08-03T12:04:04;11.55;;;3.10;;
14080;SDS011;7116;52.152;5.392;2022-08-03T12:06:30;10.27;;;3.07;;
14080;SDS011;7116;52.152;5.392;2022-08-03T12:08:55;8.47;;;2.40;;
14080;SDS011;7116;52.152;5.392;2022-08-03T12:11:20;10.33;;;2.53;;
14080;SDS011;7116;52.152;5.392;2022-08-03T12:13:47;9.00;;;2.63;;
14080;SDS011;7116;52.152;5.392;2022-08-03T12:16:17;10.73;;;2.40;;
14080;SDS011;7116;52.152;5.392;2022-08-03T12:18:43;10.95;;;2.00;;
14080;SDS011;7116;52.152;5.392;2022-08-03T12:21:11;9.23;;;2.40;;
14080;SDS011;7116;52.152;5.392;2022-08-03T12:23:37;6.80;;;2.40;;
14080;SDS011;7116;52.152;5.392;2022-08-03T12:26:03;6.63;;;2.13;;
14080;SDS011;7116;52.152;5.392;2022-08-03T12:28:29;7.88;;;2.30;;
14080;SDS011;7116;52.152;5.392;2022-08-03T12:30:54;14.80;;;2.40;;
14080;SDS011;7116;52.152;5.392;2022-08-03T12:33:23;11.77;;;2.90;;
14080;SDS011;7116;52.152;5.392;2022-08-03T12:36:03;13.60;;;2.42;;
14080;SDS011;7116;52.152;5.392;2022-08-03T12:38:29;5.93;;;2.20;;
14080;SDS011;7116;52.152;5.392;2022-08-03T12:41:05;11.37;;;2.20;;
14080;SDS011;7116;52.152;5.392;2022-08-03T12:43:30;10.63;;;2.90;;
14080;SDS011;7116;52.152;5.392;2022-08-03T12:46:05;9.00;;;2.60;;
14080;SDS011;7116;52.152;5.392;2022-08-03T12:48:33;8.70;;;2.10;;
14080;SDS011;7116;52.152;5.392;2022-08-03T12:51:08;6.97;;;2.13;;
14080;SDS011;7116;52.152;5.392;2022-08-03T12:53:33;9.15;;;2.08;;
14080;SDS011;7116;52.152;5.392;2022-08-03T12:56:02;9.30;;;2.30;;
14080;SDS011;7116;52.152;5.392;2022-08-03T12:58:29;6.43;;;2.25;;
14080;SDS011;7116;52.152;5.392;2022-08-03T13:00:57;7.85;;;2.40;;
14080;SDS011;7116;52.152;5.392;2022-08-03T13:03:22;6.40;;;2.90;;
14080;SDS011;7116;52.152;5.392;2022-08-03T13:05:47;5.77;;;2.27;;
14080;SDS011;7116;52.152;5.392;2022-08-03T13:08:16;5.97;;;2.43;;
14080;SDS011;7116;52.152;5.392;2022-08-03T13:10:42;5.20;;;1.80;;
14080;SDS011;7116;52.152;5.392;2022-08-03T13:13:07;5.97;;;2.60;;
14080;SDS011;7116;52.152;5.392;2022-08-03T13:15:35;5.00;;;2.40;;
14080;SDS011;7116;52.152;5.392;2022-08-03T13:18:00;7.13;;;2.00;;
14080;SDS011;7116;52.152;5.392;2022-08-03T13:20:25;8.20;;;2.30;;
14080;SDS011;7116;52.152;5.392;2022-08-03T13:22:50;6.22;;;2.10;;
14080;SDS011;7116;52.152;5.392;2022-08-03T13:25:16;6.17;;;2.10;;
14080;SDS011;7116;52.152;5.392;2022-08-03T13:27:41;6.67;;;2.50;;
14080;SDS011;7116;52.152;5.392;2022-08-03T13:30:07;9.27;;;2.70;;
14080;SDS011;7116;52.152;5.392;2022-08-03T13:32:33;10.70;;;2.13;;
14080;SDS011;7116;52.152;5.392;2022-08-03T13:34:58;10.47;;;2.70;;
14080;SDS011;7116;52.152;5.392;2022-08-03T13:37:31;4.13;;;2.42;;
14080;SDS011;7116;52.152;5.392;2022-08-03T13:39:56;9.33;;;2.53;;
14080;SDS011;7116;52.152;5.392;2022-08-03T13:42:22;7.63;;;2.30;;
14080;SDS011;7116;52.152;5.392;2022-08-03T13:44:47;8.10;;;2.17;;
14080;SDS011;7116;52.152;5.392;2022-08-03T13:47:12;7.10;;;2.60;;
14080;SDS011;7116;52.152;5.392;2022-08-03T13:49:37;5.80;;;2.63;;
14080;SDS011;7116;52.152;5.392;2022-08-03T13:52:02;6.20;;;2.30;;
14080;SDS011;7116;52.152;5.392;2022-08-03T13:54:28;5.73;;;2.60;;
14080;SDS011;7116;52.152;5.392;2022-08-03T13:56:54;7.22;;;2.55;;
14080;SDS011;7116;52.152;5.392;2022-08-03T13:59:19;5.50;;;2.40;;
14080;SDS011;7116;52.152;5.392;2022-08-03T14:01:45;7.18;;;2.60;;
14080;SDS011;7116;52.152;5.392;2022-08-03T14:04:11;5.28;;;2.38;;
14080;SDS011;7116;52.152;5.392;2022-08-03T14:06:36;8.57;;;2.20;;
14080;SDS011;7116;52.152;5.392;2022-08-03T14:09:01;5.60;;;1.90;;
14080;SDS011;7116;52.152;5.392;2022-08-03T14:11:26;8.00;;;2.03;;
14080;SDS011;7116;52.152;5.392;2022-08-03T14:13:52;7.40;;;2.20;;
14080;SDS011;7116;52.152;5.392;2022-08-03T14:16:17;9.20;;;2.13;;
14080;SDS011;7116;52.152;5.392;2022-08-03T14:18:42;8.47;;;2.13;;
14080;SDS011;7116;52.152;5.392;2022-08-03T14:21:07;7.70;;;2.17;;
14080;SDS011;7116;52.152;5.392;2022-08-03T14:23:33;4.03;;;1.73;;
14080;SDS011;7116;52.152;5.392;2022-08-03T14:25:58;4.47;;;2.20;;
14080;SDS011;7116;52.152;5.392;2022-08-03T14:28:24;6.87;;;1.77;;
14080;SDS011;7116;52.152;5.392;2022-08-03T14:30:52;5.03;;;2.07;;
14080;SDS011;7116;52.152;5.392;2022-08-03T14:33:18;5.93;;;2.03;;
14080;SDS011;7116;52.152;5.392;2022-08-03T14:35:43;6.97;;;1.97;;
14080;SDS011;7116;52.152;5.392;2022-08-03T14:38:08;11.97;;;2.00;;
14080;SDS011;7116;52.152;5.392;2022-08-03T14:40:33;5.17;;;2.13;;
14080;SDS011;7116;52.152;5.392;2022-08-03T14:42:59;3.17;;;1.67;;
14080;SDS011;7116;52.152;5.392;2022-08-03T14:45:24;3.60;;;1.70;;
14080;SDS011;7116;52.152;5.392;2022-08-03T14:47:49;3.27;;;1.90;;
14080;SDS011;7116;52.152;5.392;2022-08-03T14:50:15;8.98;;;2.25;;
14080;SDS011;7116;52.152;5.392;2022-08-03T14:52:40;3.50;;;1.90;;
14080;SDS011;7116;52.152;5.392;2022-08-03T14:55:06;6.13;;;2.00;;
14080;SDS011;7116;52.152;5.392;2022-08-03T14:57:31;8.37;;;2.17;;
14080;SDS011;7116;52.152;5.392;2022-08-03T14:59:56;7.43;;;2.33;;
14080;SDS011;7116;52.152;5.392;2022-08-03T15:02:21;6.60;;;2.00;;
14080;SDS011;7116;52.152;5.392;2022-08-03T15:04:47;8.10;;;2.07;;
14080;SDS011;7116;52.152;5.392;2022-08-03T15:07:12;7.27;;;2.10;;
14080;SDS011;7116;52.152;5.392;2022-08-03T15:09:37;4.63;;;1.70;;
14080;SDS011;7116;52.152;5.392;2022-08-03T15:12:03;3.67;;;1.67;;
14080;SDS011;7116;52.152;5.392;2022-08-03T15:14:28;3.77;;;1.70;;
14080;SDS011;7116;52.152;5.392;2022-08-03T15:16:53;4.90;;;1.87;;
14080;SDS011;7116;52.152;5.392;2022-08-03T15:19:18;7.17;;;1.73;;
14080;SDS011;7116;52.152;5.392;2022-08-03T15:21:44;6.07;;;2.10;;